createdAt,value
2023-04-17T00:00:57.146Z,91.85
2023-04-17T00:01:57.138Z,91.86
2023-04-17T00:02:57.453Z,91.87
2023-04-17T00:03:57.178Z,91.87
2023-04-17T00:04:57.193Z,91.88
2023-04-17T00:05:57.129Z,91.90
2023-04-17T00:06:57.067Z,91.89
2023-04-17T00:07:57.030Z,91.90
2023-04-17T00:08:57.046Z,91.90
2023-04-17T00:09:57.068Z,91.93
2023-04-17T00:11:04.561Z,91.95
2023-04-17T00:11:57.000Z,91.96
2023-04-17T00:12:56.994Z,91.97
2023-04-17T00:13:56.988Z,91.96
2023-04-17T00:14:56.964Z,91.99
2023-04-17T00:15:56.999Z,91.98
2023-04-17T00:16:56.960Z,92.00
2023-04-17T00:17:57.067Z,92.00
2023-04-17T00:18:57.104Z,92.03
2023-04-17T00:19:56.969Z,92.05
2023-04-17T00:20:57.160Z,92.06
2023-04-17T00:21:56.935Z,92.08
2023-04-17T00:22:56.909Z,92.08
2023-04-17T00:23:56.926Z,92.10
2023-04-17T00:24:56.847Z,92.12
2023-04-17T00:25:56.851Z,92.12
2023-04-17T00:26:56.874Z,92.14
2023-04-17T00:27:56.818Z,92.14
2023-04-17T00:28:56.813Z,92.15
2023-04-17T00:29:56.800Z,92.17
2023-04-17T00:30:56.842Z,92.18
2023-04-17T00:31:56.877Z,92.20
2023-04-17T00:32:56.818Z,92.20
2023-04-17T00:33:56.901Z,92.20
2023-04-17T00:34:56.758Z,92.20
2023-04-17T00:35:56.840Z,92.21
2023-04-17T00:36:56.890Z,92.22
2023-04-17T00:37:56.792Z,92.23
2023-04-17T00:38:56.823Z,92.23
2023-04-17T00:39:56.769Z,92.24
2023-04-17T00:40:56.755Z,92.23
2023-04-17T00:41:56.772Z,92.24
2023-04-17T00:42:56.681Z,92.24
2023-04-17T00:43:56.710Z,92.24
2023-04-17T00:44:56.729Z,92.24
2023-04-17T00:45:56.800Z,92.26
2023-04-17T00:46:56.713Z,92.23
2023-04-17T00:47:56.696Z,92.25
2023-04-17T00:48:56.621Z,92.25
2023-04-17T00:49:56.620Z,92.25
2023-04-17T00:50:56.628Z,92.25
2023-04-17T00:51:56.658Z,92.26
2023-04-17T00:52:56.611Z,92.25
2023-04-17T00:53:56.686Z,92.25
2023-04-17T00:54:56.581Z,92.28
2023-04-17T00:55:56.604Z,92.27
2023-04-17T00:56:56.708Z,92.27
2023-04-17T00:57:56.588Z,92.26
2023-04-17T00:58:56.556Z,92.25
2023-04-17T00:59:56.575Z,92.26
2023-04-17T01:00:56.595Z,92.25
2023-04-17T01:01:56.622Z,92.25
2023-04-17T01:02:56.687Z,92.24
2023-04-17T01:04:03.879Z,92.23
2023-04-17T01:04:56.729Z,92.23
2023-04-17T01:05:56.649Z,92.21
2023-04-17T01:06:56.521Z,92.21
2023-04-17T01:07:56.420Z,92.19
2023-04-17T01:08:56.479Z,92.18
2023-04-17T01:09:56.554Z,92.17
2023-04-17T01:10:56.486Z,92.15
2023-04-17T01:11:56.405Z,92.17
2023-04-17T01:12:56.515Z,92.15
2023-04-17T01:13:56.393Z,92.13
2023-04-17T01:14:56.398Z,92.11
2023-04-17T01:15:56.412Z,92.11
2023-04-17T01:16:56.450Z,92.10
2023-04-17T01:17:56.356Z,92.09
2023-04-17T01:18:56.409Z,92.08
2023-04-17T01:19:56.398Z,92.08
2023-04-17T01:20:56.362Z,92.05
2023-04-17T01:21:56.356Z,92.06
2023-04-17T01:22:56.323Z,92.04
2023-04-17T01:23:56.513Z,92.02
2023-04-17T01:24:56.321Z,92.00
2023-04-17T01:25:56.269Z,91.98
2023-04-17T01:26:56.237Z,91.98
2023-04-17T01:27:56.256Z,91.93
2023-04-17T01:28:56.367Z,91.94
2023-04-17T01:29:56.199Z,91.91
2023-04-17T01:30:56.215Z,91.89
2023-04-17T01:31:56.198Z,91.87
2023-04-17T01:32:56.266Z,91.87
2023-04-17T01:33:56.176Z,91.86
2023-04-17T01:34:56.196Z,91.83
2023-04-17T01:35:56.241Z,91.83
2023-04-17T01:36:56.154Z,91.83
2023-04-17T01:37:56.144Z,91.83
2023-04-17T01:38:56.122Z,91.81
2023-04-17T01:39:56.185Z,91.79
2023-04-17T01:40:56.158Z,91.79
2023-04-17T01:41:56.136Z,91.79
2023-04-17T01:42:56.162Z,91.77
2023-04-17T01:43:56.153Z,91.76
2023-04-17T01:44:56.085Z,91.78
2023-04-17T01:45:56.141Z,91.75
2023-04-17T01:46:56.060Z,91.73
2023-04-17T01:47:56.234Z,91.76
2023-04-17T01:48:56.079Z,91.76
2023-04-17T01:49:56.039Z,91.77
2023-04-17T01:50:56.018Z,91.78
2023-04-17T01:51:56.050Z,91.81
2023-04-17T01:52:56.020Z,91.83
2023-04-17T01:53:55.988Z,91.85
2023-04-17T01:54:56.023Z,91.86
2023-04-17T01:55:56.007Z,91.87
2023-04-17T01:56:56.035Z,91.88
2023-04-17T01:57:55.921Z,91.90
2023-04-17T01:58:55.916Z,91.94
2023-04-17T01:59:55.985Z,91.94
2023-04-17T02:00:55.930Z,91.95
2023-04-17T02:01:55.974Z,91.93
2023-04-17T02:02:56.002Z,91.96
2023-04-17T02:03:56.048Z,91.97
2023-04-17T02:04:55.890Z,92.00
2023-04-17T02:05:55.847Z,92.01
2023-04-17T02:06:55.870Z,92.02
2023-04-17T02:07:55.829Z,92.04
2023-04-17T02:08:55.855Z,92.05
2023-04-17T02:09:55.831Z,92.06
2023-04-17T02:10:55.861Z,92.09
2023-04-17T02:11:55.922Z,92.11
2023-04-17T02:12:55.860Z,92.11
2023-04-17T02:13:55.797Z,92.15
2023-04-17T02:14:55.784Z,92.18
2023-04-17T02:15:55.768Z,92.19
2023-04-17T02:16:55.762Z,92.20
2023-04-17T02:17:55.789Z,92.23
2023-04-17T02:18:55.726Z,92.23
2023-04-17T02:19:55.823Z,92.25
2023-04-17T02:20:55.715Z,92.29
2023-04-17T02:21:55.706Z,92.28
2023-04-17T02:22:55.703Z,92.30
2023-04-17T02:23:55.676Z,92.31
2023-04-17T02:24:55.717Z,92.32
2023-04-17T02:25:55.730Z,92.33
2023-04-17T02:26:55.698Z,92.35
2023-04-17T02:27:55.641Z,92.34
2023-04-17T02:28:55.650Z,92.33
2023-04-17T02:29:55.610Z,92.32
2023-04-17T02:30:55.647Z,92.30
2023-04-17T02:31:55.581Z,92.30
2023-04-17T02:32:55.624Z,92.31
2023-04-17T02:33:55.585Z,92.28
2023-04-17T02:34:55.551Z,92.28
2023-04-17T02:35:55.558Z,92.27
2023-04-17T02:36:55.604Z,92.26
2023-04-17T02:37:55.572Z,92.25
2023-04-17T02:38:55.549Z,92.25
2023-04-17T02:39:55.541Z,92.25
2023-04-17T02:40:55.529Z,92.23
2023-04-17T02:41:55.587Z,92.23
2023-04-17T02:42:55.474Z,92.24
2023-04-17T02:43:55.544Z,92.22
2023-04-17T02:44:55.463Z,92.22
2023-04-17T02:45:55.470Z,92.21
2023-04-17T02:46:55.501Z,92.21
2023-04-17T02:47:55.574Z,92.24
2023-04-17T02:48:55.471Z,92.26
2023-04-17T02:49:55.428Z,92.25
2023-04-17T02:50:55.457Z,92.26
2023-04-17T02:51:55.455Z,92.26
2023-04-17T02:52:55.392Z,92.28
2023-04-17T02:53:55.372Z,92.28
2023-04-17T02:54:55.393Z,92.28
2023-04-17T02:55:55.407Z,92.30
2023-04-17T02:56:55.397Z,92.30
2023-04-17T02:57:55.354Z,92.32
2023-04-17T02:58:55.443Z,92.32
2023-04-17T02:59:55.491Z,92.32
2023-04-17T03:00:55.514Z,92.33
2023-04-17T03:01:55.529Z,92.34
2023-04-17T03:02:55.595Z,92.36
2023-04-17T03:03:55.713Z,92.39
2023-04-17T03:04:55.321Z,92.39
2023-04-17T03:05:55.388Z,92.39
2023-04-17T03:06:55.523Z,92.38
2023-04-17T03:07:55.460Z,92.39
2023-04-17T03:08:55.445Z,92.41
2023-04-17T03:09:55.450Z,92.42
2023-04-17T03:10:55.347Z,92.41
2023-04-17T03:11:55.264Z,92.41
2023-04-17T03:12:55.361Z,92.41
2023-04-17T03:13:55.355Z,92.41
2023-04-17T03:14:55.266Z,92.43
2023-04-17T03:15:55.403Z,92.44
2023-04-17T03:16:55.368Z,92.44
2023-04-17T03:17:55.367Z,92.44
2023-04-17T03:18:55.338Z,92.44
2023-04-17T03:19:55.329Z,92.44
2023-04-17T03:20:55.277Z,92.47
2023-04-17T03:21:55.463Z,92.46
2023-04-17T03:22:55.227Z,92.45
2023-04-17T03:23:55.330Z,92.45
2023-04-17T03:24:55.339Z,92.46
2023-04-17T03:25:55.163Z,92.45
2023-04-17T03:26:55.251Z,92.45
2023-04-17T03:27:55.350Z,92.43
2023-04-17T03:28:55.127Z,92.45
2023-04-17T03:29:55.165Z,92.44
2023-04-17T03:30:55.225Z,92.43
2023-04-17T03:31:55.195Z,92.44
2023-04-17T03:32:55.193Z,92.43
2023-04-17T03:33:55.075Z,92.42
2023-04-17T03:34:55.152Z,92.43
2023-04-17T03:35:55.022Z,92.42
2023-04-17T03:36:55.051Z,92.41
2023-04-17T03:37:55.021Z,92.40
2023-04-17T03:38:55.023Z,92.40
2023-04-17T03:39:55.007Z,92.40
2023-04-17T03:40:55.079Z,92.39
2023-04-17T03:41:55.214Z,92.35
2023-04-17T03:42:55.009Z,92.34
2023-04-17T03:43:55.041Z,92.34
2023-04-17T03:44:54.941Z,92.32
2023-04-17T03:45:54.999Z,92.31
2023-04-17T03:46:55.012Z,92.30
2023-04-17T03:47:55.151Z,92.27
2023-04-17T03:48:55.020Z,92.28
2023-04-17T03:49:54.989Z,92.25
2023-04-17T03:50:54.895Z,92.27
2023-04-17T03:51:55.028Z,92.24
2023-04-17T03:52:54.952Z,92.25
2023-04-17T03:53:55.553Z,92.25
2023-04-17T03:54:55.210Z,92.23
2023-04-17T03:56:02.342Z,92.22
2023-04-17T03:56:55.678Z,92.20
2023-04-17T03:57:55.572Z,92.17
2023-04-17T03:58:54.926Z,92.15
2023-04-17T03:59:55.443Z,92.13
2023-04-17T04:00:55.252Z,92.11
2023-04-17T04:01:58.097Z,92.10
2023-04-17T04:02:55.522Z,92.07
2023-04-17T04:03:55.134Z,92.07
2023-04-17T04:04:54.926Z,92.06
2023-04-17T04:05:55.173Z,92.04
2023-04-17T04:06:56.046Z,92.01
2023-04-17T04:07:55.091Z,91.99
2023-04-17T04:08:56.242Z,92.00
2023-04-17T04:09:54.827Z,91.96
2023-04-17T04:10:54.786Z,91.95
2023-04-17T04:11:54.725Z,91.98
2023-04-17T04:12:55.027Z,91.95
2023-04-17T04:13:54.700Z,91.92
2023-04-17T04:14:54.728Z,91.95
2023-04-17T04:15:54.818Z,91.93
2023-04-17T04:16:54.766Z,91.93
2023-04-17T04:17:54.665Z,91.94
2023-04-17T04:18:54.542Z,91.93
2023-04-17T04:19:54.616Z,91.92
2023-04-17T04:20:54.531Z,91.92
2023-04-17T04:21:54.517Z,91.89
2023-04-17T04:22:54.573Z,91.92
2023-04-17T04:23:54.450Z,91.91
2023-04-17T04:24:54.441Z,91.92
2023-04-17T04:25:54.429Z,91.93
2023-04-17T04:26:54.395Z,91.95
2023-04-17T04:27:54.509Z,91.94
2023-04-17T04:28:54.442Z,91.97
2023-04-17T04:29:54.365Z,91.97
2023-04-17T04:30:54.349Z,91.99
2023-04-17T04:31:54.509Z,91.96
2023-04-17T04:32:54.476Z,92.00
2023-04-17T04:33:54.348Z,91.99
2023-04-17T04:34:54.359Z,92.00
2023-04-17T04:35:54.327Z,92.01
2023-04-17T04:36:54.394Z,92.03
2023-04-17T04:37:54.376Z,92.03
2023-04-17T04:38:54.355Z,92.04
2023-04-17T04:39:54.330Z,92.05
2023-04-17T04:40:54.323Z,92.03
2023-04-17T04:41:54.235Z,92.07
2023-04-17T04:42:54.310Z,92.08
2023-04-17T04:43:54.287Z,92.09
2023-04-17T04:44:54.270Z,92.10
2023-04-17T04:45:54.272Z,92.10
2023-04-17T04:46:54.277Z,92.11
2023-04-17T04:47:54.304Z,92.13
2023-04-17T04:48:54.254Z,92.13
2023-04-17T04:49:54.209Z,92.13
2023-04-17T04:50:54.180Z,92.13
2023-04-17T04:51:54.235Z,92.12
2023-04-17T04:52:54.246Z,92.11
2023-04-17T04:53:54.266Z,92.11
2023-04-17T04:54:54.196Z,92.13
2023-04-17T04:55:54.166Z,92.11
2023-04-17T04:56:54.170Z,92.13
2023-04-17T04:57:54.354Z,92.12
2023-04-17T04:58:54.184Z,92.13
2023-04-17T04:59:54.145Z,92.13
2023-04-17T05:00:54.144Z,92.13
2023-04-17T05:01:54.546Z,92.16
2023-04-17T05:02:54.964Z,92.11
2023-04-17T05:03:54.911Z,92.14
2023-04-17T05:04:54.155Z,92.14
2023-04-17T05:05:54.194Z,92.13
2023-04-17T05:06:54.146Z,92.14
2023-04-17T05:07:54.145Z,92.17
2023-04-17T05:08:54.448Z,92.17
2023-04-17T05:09:54.322Z,92.18
2023-04-17T05:10:54.280Z,92.19
2023-04-17T05:11:54.273Z,92.18
2023-04-17T05:12:54.253Z,92.19
2023-04-17T05:13:54.288Z,92.19
2023-04-17T05:14:54.344Z,92.19
2023-04-17T05:15:54.208Z,92.18
2023-04-17T05:16:54.395Z,92.18
2023-04-17T05:17:54.989Z,92.18
2023-04-17T05:18:54.167Z,92.17
2023-04-17T05:19:53.947Z,92.17
2023-04-17T05:20:53.917Z,92.16
2023-04-17T05:21:53.941Z,92.15
2023-04-17T05:22:53.949Z,92.16
2023-04-17T05:23:53.949Z,92.17
2023-04-17T05:24:54.060Z,92.15
2023-04-17T05:25:53.849Z,92.14
2023-04-17T05:26:54.259Z,92.14
2023-04-17T05:27:54.076Z,92.14
2023-04-17T05:28:53.883Z,92.11
2023-04-17T05:29:54.138Z,92.10
2023-04-17T05:30:53.860Z,92.07
2023-04-17T05:31:53.896Z,92.07
2023-04-17T05:32:54.091Z,92.05
2023-04-17T05:33:53.906Z,92.05
2023-04-17T05:34:54.069Z,92.05
2023-04-17T05:35:56.262Z,92.04
2023-04-17T05:36:54.396Z,92.02
2023-04-17T05:37:54.498Z,92.02
2023-04-17T05:38:53.914Z,92.00
2023-04-17T05:39:54.296Z,91.98
2023-04-17T05:40:54.491Z,91.96
2023-04-17T05:41:54.057Z,91.93
2023-04-17T05:42:54.714Z,91.91
2023-04-17T05:43:53.781Z,91.87
2023-04-17T05:44:54.810Z,91.85
2023-04-17T05:47:05.752Z,91.42
2023-04-17T05:48:06.565Z,91.78
2023-04-17T05:49:06.588Z,91.70
2023-04-17T05:50:06.215Z,91.66
2023-04-17T05:51:06.237Z,91.62
2023-04-17T05:52:06.261Z,91.60
2023-04-17T05:53:06.205Z,91.56
2023-04-17T05:54:06.190Z,91.54
2023-04-17T05:55:06.166Z,91.51
2023-04-17T05:56:06.237Z,91.47
2023-04-17T05:57:06.156Z,91.44
2023-04-17T05:58:22.197Z,91.43
2023-04-17T05:59:06.236Z,91.43
2023-04-17T06:00:06.276Z,91.41
2023-04-17T06:01:06.318Z,91.38
2023-04-17T06:02:06.206Z,91.36
2023-04-17T06:03:06.326Z,91.36
2023-04-17T06:04:06.443Z,91.34
2023-04-17T06:05:06.261Z,91.31
2023-04-17T06:06:06.082Z,91.28
2023-04-17T06:07:06.138Z,91.25
2023-04-17T06:08:06.069Z,91.20
2023-04-17T06:09:06.046Z,91.22
2023-04-17T06:10:06.063Z,91.19
2023-04-17T06:11:06.052Z,91.20
2023-04-17T06:12:06.065Z,91.27
2023-04-17T06:13:06.041Z,91.30
2023-04-17T06:14:06.002Z,91.34
2023-04-17T06:15:07.377Z,91.34
2023-04-17T06:16:05.982Z,91.32
2023-04-17T06:17:06.050Z,91.35
2023-04-17T06:18:06.064Z,91.33
2023-04-17T06:19:05.982Z,91.31
2023-04-17T06:20:06.037Z,91.28
2023-04-17T06:21:05.927Z,91.27
2023-04-17T06:22:05.936Z,91.27
2023-04-17T06:23:05.903Z,91.27
2023-04-17T06:24:05.938Z,91.27
2023-04-17T06:25:05.894Z,91.28
2023-04-17T06:26:05.883Z,91.29
2023-04-17T06:27:05.896Z,91.29
2023-04-17T06:28:05.865Z,91.26
2023-04-17T06:29:05.881Z,91.25
2023-04-17T06:30:05.900Z,91.21
2023-04-17T06:31:05.980Z,91.23
2023-04-17T06:32:05.820Z,91.24
2023-04-17T06:33:05.886Z,91.25
2023-04-17T06:34:05.790Z,91.26
2023-04-17T06:35:05.879Z,91.26
2023-04-17T06:36:05.845Z,91.20
2023-04-17T06:37:05.776Z,91.19
2023-04-17T06:38:05.758Z,91.19
2023-04-17T06:39:05.788Z,91.18
2023-04-17T06:40:05.759Z,91.16
2023-04-17T06:41:05.760Z,91.12
2023-04-17T06:42:05.714Z,91.08
2023-04-17T06:43:05.725Z,91.02
2023-04-17T06:44:05.704Z,91.00
2023-04-17T06:45:05.691Z,90.94
2023-04-17T06:46:05.743Z,90.89
2023-04-17T06:47:05.731Z,90.81
2023-04-17T06:48:05.819Z,90.74
2023-04-17T06:49:05.992Z,90.68
2023-04-17T06:51:55.628Z,90.27
2023-04-17T06:52:56.250Z,90.57
2023-04-17T06:53:56.374Z,90.55
2023-04-17T06:54:56.177Z,90.51
2023-04-17T06:55:56.165Z,90.47
2023-04-17T06:56:56.186Z,90.42
2023-04-17T06:57:56.201Z,90.39
2023-04-17T06:58:56.121Z,90.35
2023-04-17T06:59:56.137Z,90.39
2023-04-17T07:00:56.128Z,90.38
2023-04-17T07:01:56.174Z,90.36
2023-04-17T07:02:56.322Z,90.32
2023-04-17T07:03:56.358Z,90.27
2023-04-17T07:04:56.136Z,90.23
2023-04-17T07:05:56.058Z,90.18
2023-04-17T07:06:56.064Z,90.16
2023-04-17T07:07:56.064Z,90.17
2023-04-17T07:08:56.059Z,90.14
2023-04-17T07:09:56.098Z,90.10
2023-04-17T07:10:56.059Z,90.10
2023-04-17T07:11:56.055Z,90.09
2023-04-17T07:12:56.102Z,90.05
2023-04-17T07:13:55.996Z,90.01
2023-04-17T07:14:55.950Z,90.02
2023-04-17T07:15:56.141Z,89.99
2023-04-17T07:16:56.001Z,89.95
2023-04-17T07:17:56.003Z,89.96
2023-04-17T07:18:55.967Z,89.93
2023-04-17T07:19:55.939Z,89.88
2023-04-17T07:20:55.958Z,89.87
2023-04-17T07:21:55.945Z,89.85
2023-04-17T07:22:55.899Z,89.83
2023-04-17T07:23:56.011Z,89.80
2023-04-17T07:24:55.862Z,89.77
2023-04-17T07:25:55.891Z,89.75
2023-04-17T07:26:55.953Z,89.73
2023-04-17T07:27:55.908Z,89.63
2023-04-17T07:28:56.003Z,89.49
2023-04-17T07:29:55.903Z,89.34
2023-04-17T07:30:55.879Z,89.24
2023-04-17T07:31:55.942Z,89.18
2023-04-17T07:32:55.890Z,89.13
2023-04-17T07:33:55.798Z,89.08
2023-04-17T07:34:55.821Z,88.97
2023-04-17T07:35:55.803Z,88.89
2023-04-17T07:36:55.737Z,88.77
2023-04-17T07:37:55.767Z,88.70
2023-04-17T07:38:55.748Z,88.55
2023-04-17T07:39:55.751Z,88.43
2023-04-17T07:40:55.712Z,88.36
2023-04-17T07:41:55.716Z,88.34
2023-04-17T07:42:55.688Z,88.28
2023-04-17T07:43:57.779Z,88.22
2023-04-17T07:44:55.691Z,88.13
2023-04-17T07:45:55.674Z,88.04
2023-04-17T07:46:55.828Z,87.90
2023-04-17T07:47:55.753Z,87.73
2023-04-17T07:48:56.351Z,87.44
2023-04-17T07:49:55.685Z,87.08
2023-04-17T07:50:55.664Z,86.86
2023-04-17T07:51:55.596Z,86.70
2023-04-17T07:52:55.648Z,86.66
2023-04-17T07:53:55.604Z,86.65
2023-04-17T07:54:55.573Z,86.71
2023-04-17T07:55:55.595Z,86.67
2023-04-17T07:56:55.718Z,86.89
2023-04-17T07:57:55.569Z,86.89
2023-04-17T07:58:55.528Z,86.75
2023-04-17T07:59:55.613Z,86.73
2023-04-17T08:00:55.537Z,86.65
2023-04-17T08:01:55.649Z,86.66
2023-04-17T08:02:55.629Z,86.69
2023-04-17T08:03:55.730Z,86.78
2023-04-17T08:04:55.701Z,86.74
2023-04-17T08:05:55.528Z,86.54
2023-04-17T08:06:55.530Z,86.52
2023-04-17T08:07:55.433Z,86.49
2023-04-17T08:08:55.482Z,86.66
2023-04-17T08:09:55.543Z,86.75
2023-04-17T08:10:55.421Z,86.84
2023-04-17T08:11:57.960Z,86.91
2023-04-17T08:12:55.381Z,86.77
2023-04-17T08:13:55.480Z,86.58
2023-04-17T08:14:55.393Z,86.56
2023-04-17T08:15:55.419Z,86.63
2023-04-17T08:16:55.498Z,86.64
2023-04-17T08:17:55.457Z,86.51
2023-04-17T08:18:55.332Z,86.37
2023-04-17T08:19:55.324Z,86.21
2023-04-17T08:20:55.344Z,86.16
2023-04-17T08:21:55.298Z,86.06
2023-04-17T08:22:55.384Z,85.90
2023-04-17T08:23:55.347Z,85.67
2023-04-17T08:24:55.289Z,85.56
2023-04-17T08:25:55.253Z,85.51
2023-04-17T08:26:55.263Z,85.26
2023-04-17T08:27:55.218Z,84.94
2023-04-17T08:28:55.343Z,84.46
2023-04-17T08:29:55.213Z,84.28
2023-04-17T08:30:55.224Z,83.99
2023-04-17T08:32:10.365Z,83.79
2023-04-17T08:32:55.233Z,84.03
2023-04-17T08:34:02.834Z,83.91
2023-04-17T08:34:55.206Z,83.35
2023-04-17T08:35:55.152Z,83.28
2023-04-17T08:36:55.184Z,83.06
2023-04-17T08:37:55.340Z,83.15
2023-04-17T08:38:55.236Z,82.77
2023-04-17T08:39:55.122Z,82.80
2023-04-17T08:40:55.149Z,82.73
2023-04-17T08:41:55.086Z,82.86
2023-04-17T08:42:55.139Z,82.45
2023-04-17T08:43:55.163Z,82.39
2023-04-17T08:44:55.089Z,82.58
2023-04-17T08:45:55.137Z,82.83
2023-04-17T08:46:55.060Z,82.83
2023-04-17T08:47:55.071Z,82.75
2023-04-17T08:48:55.056Z,83.06
2023-04-17T08:49:55.025Z,83.34
2023-04-17T08:50:55.037Z,83.67
2023-04-17T08:51:54.995Z,83.27
2023-04-17T08:52:55.051Z,83.35
2023-04-17T08:53:55.034Z,83.16
2023-04-17T08:54:54.956Z,83.08
2023-04-17T08:55:54.998Z,82.93
2023-04-17T08:56:55.084Z,82.93
2023-04-17T08:57:54.953Z,82.76
2023-04-17T08:58:54.972Z,82.59
2023-04-17T08:59:54.992Z,82.38
2023-04-17T09:00:54.926Z,82.24
2023-04-17T09:01:55.014Z,82.17
2023-04-17T09:02:55.158Z,82.24
2023-04-17T09:03:55.263Z,82.26
2023-04-17T09:04:55.276Z,82.09
2023-04-17T09:05:54.872Z,81.48
2023-04-17T09:06:54.839Z,81.64
2023-04-17T09:07:54.833Z,81.52
2023-04-17T09:08:54.847Z,81.26
2023-04-17T09:09:54.888Z,81.19
2023-04-17T09:10:54.800Z,80.37
2023-04-17T09:11:54.815Z,80.91
2023-04-17T09:12:54.809Z,81.01
2023-04-17T09:13:54.830Z,80.77
2023-04-17T09:14:54.805Z,80.32
2023-04-17T09:15:54.847Z,80.18
2023-04-17T09:16:54.716Z,79.82
2023-04-17T09:17:54.874Z,79.91
2023-04-17T09:18:54.736Z,80.58
2023-04-17T09:19:54.692Z,80.38
2023-04-17T09:20:54.694Z,79.87
2023-04-17T09:21:54.718Z,79.71
2023-04-17T09:22:54.673Z,79.59
2023-04-17T09:23:54.683Z,79.41
2023-04-17T09:25:54.663Z,79.43
2023-04-17T09:26:54.690Z,79.86
2023-04-17T09:27:54.623Z,79.51
2023-04-17T09:28:54.630Z,78.93
2023-04-17T09:29:54.579Z,78.42
2023-04-17T09:30:54.572Z,78.86
2023-04-17T09:31:54.615Z,78.59
2023-04-17T09:32:54.673Z,78.67
2023-04-17T09:33:54.607Z,78.27
2023-04-17T09:34:54.563Z,78.01
2023-04-17T09:35:54.523Z,77.85
2023-04-17T09:36:54.543Z,77.45
2023-04-17T09:37:54.771Z,76.24
2023-04-17T09:38:54.579Z,76.01
2023-04-17T09:39:54.700Z,75.73
2023-04-17T09:40:54.520Z,75.75
2023-04-17T09:41:54.489Z,76.21
2023-04-17T09:42:54.479Z,75.34
2023-04-17T09:43:54.461Z,74.91
2023-04-17T09:44:54.438Z,75.54
2023-04-17T09:45:54.490Z,76.16
2023-04-17T09:46:54.503Z,76.94
2023-04-17T09:47:54.555Z,76.41
2023-04-17T09:48:54.391Z,75.14
2023-04-17T09:49:54.392Z,74.67
2023-04-17T09:50:54.389Z,74.38
2023-04-17T09:51:54.353Z,75.25
2023-04-17T09:52:54.429Z,74.85
2023-04-17T09:53:54.381Z,74.38
2023-04-17T09:54:54.366Z,73.87
2023-04-17T09:55:54.386Z,73.87
2023-04-17T09:56:54.343Z,72.38
2023-04-17T09:57:54.297Z,71.96
2023-04-17T09:58:54.341Z,73.55
2023-04-17T09:59:54.395Z,72.75
2023-04-17T10:00:54.350Z,73.45
2023-04-17T10:01:54.426Z,73.80
2023-04-17T10:02:54.496Z,74.64
2023-04-17T10:03:54.553Z,73.08
2023-04-17T10:04:54.220Z,72.60
2023-04-17T10:05:54.236Z,72.38
2023-04-17T10:06:54.217Z,73.23
2023-04-17T10:07:54.205Z,71.51
2023-04-17T10:08:54.243Z,70.59
2023-04-17T10:09:54.183Z,70.71
2023-04-17T10:10:54.175Z,68.67
2023-04-17T10:11:54.164Z,68.66
2023-04-17T10:12:54.185Z,67.76
2023-04-17T10:13:54.136Z,68.17
2023-04-17T10:14:54.116Z,70.11
2023-04-17T10:15:54.313Z,71.07
2023-04-17T10:16:54.121Z,72.12
2023-04-17T10:17:54.126Z,70.95
2023-04-17T10:18:54.090Z,70.69
2023-04-17T10:19:54.106Z,70.20
2023-04-17T10:20:54.278Z,70.57
2023-04-17T10:21:54.102Z,69.35
2023-04-17T10:22:54.318Z,68.20
2023-04-17T10:23:54.038Z,67.47
2023-04-17T10:24:54.058Z,67.67
2023-04-17T10:25:54.001Z,69.00
2023-04-17T10:26:53.999Z,68.29
2023-04-17T10:27:54.040Z,66.68
2023-04-17T10:28:53.994Z,67.52
2023-04-17T10:29:53.993Z,67.19
2023-04-17T10:30:54.505Z,67.31
2023-04-17T10:31:54.030Z,66.92
2023-04-17T10:32:53.953Z,67.39
2023-04-17T10:33:54.013Z,66.18
2023-04-17T10:34:54.015Z,65.84
2023-04-17T10:35:53.981Z,66.98
2023-04-17T10:36:54.007Z,66.86
2023-04-17T10:37:53.905Z,65.78
2023-04-17T10:38:53.924Z,66.35
2023-04-17T10:39:53.923Z,65.52
2023-04-17T10:40:53.897Z,63.32
2023-04-17T10:41:53.870Z,62.09
2023-04-17T10:42:53.848Z,60.67
2023-04-17T10:43:53.868Z,62.77
2023-04-17T10:44:53.818Z,67.01
2023-04-17T10:45:53.899Z,68.20
2023-04-17T10:46:53.808Z,66.35
2023-04-17T10:47:53.894Z,65.57
2023-04-17T10:48:53.907Z,65.99
2023-04-17T10:49:53.778Z,67.02
2023-04-17T10:50:53.826Z,66.67
2023-04-17T10:51:53.736Z,67.02
2023-04-17T10:52:53.756Z,67.16
2023-04-17T10:53:53.747Z,66.73
2023-04-17T10:54:53.749Z,65.44
2023-04-17T10:55:53.741Z,65.64
2023-04-17T10:56:53.730Z,61.96
2023-04-17T10:57:53.683Z,61.39
2023-04-17T10:58:53.672Z,63.05
2023-04-17T10:59:53.662Z,62.26
2023-04-17T11:00:53.718Z,62.20
2023-04-17T11:01:53.810Z,63.42
2023-04-17T11:02:53.737Z,64.68
2023-04-17T11:03:53.629Z,67.25
2023-04-17T11:04:53.652Z,67.09
2023-04-17T11:05:53.619Z,65.22
2023-04-17T11:06:53.592Z,66.24
2023-04-17T11:07:53.600Z,67.25
2023-04-17T11:08:54.055Z,66.22
2023-04-17T11:09:53.584Z,63.56
2023-04-17T11:10:53.562Z,64.51
2023-04-17T11:11:53.588Z,65.66
2023-04-17T11:12:53.552Z,62.08
2023-04-17T11:13:53.548Z,59.59
2023-04-17T11:14:53.530Z,59.35
2023-04-17T11:15:53.520Z,59.36
2023-04-17T11:16:53.634Z,59.28
2023-04-17T11:17:53.550Z,58.68
2023-04-17T11:18:53.487Z,58.78
2023-04-17T11:19:53.479Z,57.18
2023-04-17T11:20:53.608Z,56.82
2023-04-17T11:21:53.767Z,53.92
2023-04-17T11:22:53.435Z,51.10
2023-04-17T11:23:53.426Z,51.49
2023-04-17T11:24:53.512Z,52.72
2023-04-17T11:25:53.397Z,54.29
2023-04-17T11:26:53.467Z,53.93
2023-04-17T11:27:53.373Z,53.96
2023-04-17T11:28:53.455Z,52.08
2023-04-17T11:29:53.385Z,53.13
2023-04-17T11:30:53.433Z,51.94
2023-04-17T11:31:53.380Z,53.47
2023-04-17T11:32:53.421Z,52.73
2023-04-17T11:33:53.328Z,51.99
2023-04-17T11:34:53.383Z,53.06
2023-04-17T11:35:53.303Z,52.91
2023-04-17T11:36:53.295Z,54.85
2023-04-17T11:37:53.315Z,57.95
2023-04-17T11:38:55.412Z,58.46
2023-04-17T11:39:53.260Z,56.58
2023-04-17T11:40:53.339Z,57.03
2023-04-17T11:41:53.314Z,59.94
2023-04-17T11:42:53.251Z,59.70
2023-04-17T11:43:53.254Z,59.16
2023-04-17T11:44:53.277Z,59.19
2023-04-17T11:45:53.260Z,59.48
2023-04-17T11:46:53.282Z,58.29
2023-04-17T11:47:53.203Z,59.97
2023-04-17T11:48:53.177Z,61.65
2023-04-17T11:49:53.181Z,62.90
2023-04-17T11:50:53.151Z,62.08
2023-04-17T11:51:53.245Z,62.40
2023-04-17T11:52:53.144Z,62.58
2023-04-17T11:53:53.121Z,64.54
2023-04-17T11:54:53.115Z,63.79
2023-04-17T11:55:53.112Z,61.73
2023-04-17T11:56:53.136Z,59.91
2023-04-17T11:57:53.093Z,59.20
2023-04-17T11:58:53.144Z,58.42
2023-04-17T11:59:53.055Z,57.97
2023-04-17T12:00:53.054Z,58.25
2023-04-17T12:01:53.183Z,59.15
2023-04-17T12:02:53.088Z,57.78
2023-04-17T12:03:53.099Z,56.45
2023-04-17T12:04:53.151Z,54.56
2023-04-17T12:05:53.260Z,52.46
2023-04-17T12:06:52.998Z,52.66
2023-04-17T12:07:53.003Z,53.69
2023-04-17T12:08:52.989Z,54.77
2023-04-17T12:09:53.079Z,57.19
2023-04-17T12:10:53.041Z,54.21
2023-04-17T12:11:52.993Z,52.77
2023-04-17T12:12:52.949Z,53.67
2023-04-17T12:13:52.917Z,55.34
2023-04-17T12:14:52.949Z,55.38
2023-04-17T12:15:52.923Z,56.25
2023-04-17T12:16:52.893Z,55.79
2023-04-17T12:17:52.971Z,55.09
2023-04-17T12:18:52.988Z,52.86
2023-04-17T12:19:52.866Z,54.96
2023-04-17T12:20:52.884Z,54.69
2023-04-17T12:21:52.840Z,55.17
2023-04-17T12:22:52.860Z,56.06
2023-04-17T12:23:52.829Z,52.62
2023-04-17T12:24:52.816Z,51.56
2023-04-17T12:25:52.818Z,52.21
2023-04-17T12:26:52.901Z,51.67
2023-04-17T12:27:52.862Z,51.31
2023-04-17T12:28:52.781Z,53.06
2023-04-17T12:29:52.796Z,53.76
2023-04-17T12:30:52.764Z,54.91
2023-04-17T12:31:52.767Z,55.82
2023-04-17T12:32:52.793Z,56.56
2023-04-17T12:33:52.738Z,57.61
2023-04-17T12:34:52.713Z,57.07
2023-04-17T12:35:52.913Z,57.62
2023-04-17T12:36:52.702Z,60.09
2023-04-17T12:37:52.667Z,62.98
2023-04-17T12:38:52.668Z,64.01
2023-04-17T12:39:52.676Z,63.91
2023-04-17T12:40:52.661Z,65.31
2023-04-17T12:41:52.687Z,66.53
2023-04-17T12:42:52.647Z,66.39
2023-04-17T12:43:52.645Z,66.35
2023-04-17T12:44:52.612Z,67.10
2023-04-17T12:45:52.703Z,67.93
2023-04-17T12:46:52.615Z,67.25
2023-04-17T12:47:52.641Z,67.58
2023-04-17T12:48:52.590Z,67.98
2023-04-17T12:49:52.574Z,68.21
2023-04-17T12:50:52.660Z,68.59
2023-04-17T12:51:52.591Z,68.57
2023-04-17T12:52:52.859Z,68.96
2023-04-17T12:53:52.716Z,68.95
2023-04-17T12:54:52.506Z,68.57
2023-04-17T12:55:52.512Z,68.71
2023-04-17T12:56:52.543Z,69.42